logo dgac
Lunes 20 de Mayo del 2019
Buscar por aerodromo o helipuerto
Ingrese nombre de aeródromo, localidad o designador OACI:
METAR del 20-05-2019 a las 13:00 UTC
METAR SCBA 201300Z 33001KT 9999 FEW040 M06/M07 Q1027
Viento: dirección 330 grados, velocidad 1 nudos
Visibilidad: 10 km o más
Nubes: Escasa nubosidad a 4000 pies sobre el nivel del aeródromo
Temperatura: -6 °C
Rocío: -7 °C
Humedad_relativa: 93%
Presión: 1027 hPa
METAR del 20-05-2019 a las 13:00 UTC
METAR SCBA 201300Z 33001KT 9999 FEW040 M06/M07 Q1027
Viento: dirección 330 grados, velocidad 1 nudos
Visibilidad: 10 km o más
Nubes: Escasa nubosidad a 4000 pies sobre el nivel del aeródromo
Temperatura: -6 °C
Rocío: -7 °C
Humedad_relativa: 93%
Presión: 1027 hPa
METAR del 20-05-2019 a las 12:00 UTC
METAR SCBA 201200Z 25004KT 240V320 9999 FEW040 M05/M06 Q1026
Viento: dirección 250 grados, velocidad 4 nudos
Viento con dirección variable entre 240 y 320 grados
Visibilidad: 10 km o más
Nubes: Escasa nubosidad a 4000 pies sobre el nivel del aeródromo
Temperatura: -5 °C
Rocío: -6 °C
Humedad_relativa: 93%
Presión: 1026 hPa
METAR del 20-05-2019 a las 12:00 UTC
METAR SCBA 201200Z 25004KT 240V320 9999 FEW040 M05/M06 Q1026
Viento: dirección 250 grados, velocidad 4 nudos
Viento con dirección variable entre 240 y 320 grados
Visibilidad: 10 km o más
Nubes: Escasa nubosidad a 4000 pies sobre el nivel del aeródromo
Temperatura: -5 °C
Rocío: -6 °C
Humedad_relativa: 93%
Presión: 1026 hPa
METAR del 20-05-2019 a las 11:00 UTC
METAR SCBA 201100Z AUTO 25003KT 240V320 CAVOK M05/M07 Q1026
Nan: AUTO
Viento: dirección 250 grados, velocidad 3 nudos
Viento con dirección variable entre 240 y 320 grados
Visibilidad: 10 km o más,
    sin nubes bajo los 5.000 pies o bajo del MSA (Mínimo de Seguridad del Aeródromo),
    sin cumulonimbus, y sin fenómenos de tiempo significativo en el aeródromo o alrededores
Temperatura: -5 °C
Rocío: -7 °C
Humedad_relativa: 86%
Presión: 1026 hPa
METAR del 20-05-2019 a las 10:00 UTC
METAR SCBA 201000Z AUTO 25006KT CAVOK M04/M06 Q1025
Nan: AUTO
Viento: dirección 250 grados, velocidad 6 nudos
Visibilidad: 10 km o más,
    sin nubes bajo los 5.000 pies o bajo del MSA (Mínimo de Seguridad del Aeródromo),
    sin cumulonimbus, y sin fenómenos de tiempo significativo en el aeródromo o alrededores
Temperatura: -4 °C
Rocío: -6 °C
Humedad_relativa: 86%
Presión: 1025 hPa
METAR del 20-05-2019 a las 09:00 UTC
METAR SCBA 200900Z AUTO VRB02KT 9999 BKN009 BKN013 M03/M05 Q1025
Nan: AUTO
Viento: dirección variable, velocidad 2 nudos
Visibilidad: 10 km o más
Nubes: Nublado a 900 pies sobre el nivel del aeródromo
Nubes: Nublado a 1300 pies sobre el nivel del aeródromo
Temperatura: -3 °C
Rocío: -5 °C
Humedad_relativa: 86%
Presión: 1025 hPa
METAR del 20-05-2019 a las 08:00 UTC
METAR SCBA 200800Z AUTO 00000KT 9999 BKN009 BKN013 M03/M04 Q1024
Nan: AUTO
Visibilidad: 10 km o más
Nubes: Nublado a 900 pies sobre el nivel del aeródromo
Nubes: Nublado a 1300 pies sobre el nivel del aeródromo
Temperatura: -3 °C
Rocío: -4 °C
Humedad_relativa: 93%
Presión: 1024 hPa
METAR del 20-05-2019 a las 07:00 UTC
METAR SCBA 200700Z AUTO 06001KT 9999 M05/M06 Q1025
Nan: AUTO
Viento: dirección 060 grados, velocidad 1 nudos
Visibilidad: 10 km o más
Temperatura: -5 °C
Rocío: -6 °C
Humedad_relativa: 93%
Presión: 1025 hPa
METAR del 20-05-2019 a las 06:00 UTC
METAR SCBA 200600Z AUTO 27002KT 9999 M05/M06 Q1024
Nan: AUTO
Viento: dirección 270 grados, velocidad 2 nudos
Visibilidad: 10 km o más
Temperatura: -5 °C
Rocío: -6 °C
Humedad_relativa: 93%
Presión: 1024 hPa